sensor_id;sensor_type;location;lat;lon;timestamp;temperature;humidity
5554;DHT22;2800;49.528;8.666;2023-02-04T00:00:44;8.30;99.90
5554;DHT22;2800;49.528;8.666;2023-02-04T00:03:10;8.20;99.90
5554;DHT22;2800;49.528;8.666;2023-02-04T00:05:36;8.30;99.90
5554;DHT22;2800;49.528;8.666;2023-02-04T00:08:02;8.30;99.90
5554;DHT22;2800;49.528;8.666;2023-02-04T00:10:28;8.20;99.90
5554;DHT22;2800;49.528;8.666;2023-02-04T00:12:53;8.30;99.90
5554;DHT22;2800;49.528;8.666;2023-02-04T00:15:19;8.30;99.90
5554;DHT22;2800;49.528;8.666;2023-02-04T00:17:44;8.30;99.90
5554;DHT22;2800;49.528;8.666;2023-02-04T00:20:10;8.30;99.90
5554;DHT22;2800;49.528;8.666;2023-02-04T00:22:36;8.40;99.90
5554;DHT22;2800;49.528;8.666;2023-02-04T00:25:01;8.40;99.90
5554;DHT22;2800;49.528;8.666;2023-02-04T00:27:27;8.40;99.90
5554;DHT22;2800;49.528;8.666;2023-02-04T00:29:52;8.40;99.90
5554;DHT22;2800;49.528;8.666;2023-02-04T00:32:18;8.40;99.90
5554;DHT22;2800;49.528;8.666;2023-02-04T00:34:43;8.40;99.90
5554;DHT22;2800;49.528;8.666;2023-02-04T00:37:09;8.30;99.90
5554;DHT22;2800;49.528;8.666;2023-02-04T00:39:34;8.40;99.90
5554;DHT22;2800;49.528;8.666;2023-02-04T00:42:00;8.40;99.90
5554;DHT22;2800;49.528;8.666;2023-02-04T00:44:25;8.40;99.90
5554;DHT22;2800;49.528;8.666;2023-02-04T00:46:51;8.40;99.90
5554;DHT22;2800;49.528;8.666;2023-02-04T00:49:16;8.40;99.90
5554;DHT22;2800;49.528;8.666;2023-02-04T00:51:42;8.30;99.90
5554;DHT22;2800;49.528;8.666;2023-02-04T00:54:11;8.30;99.90
5554;DHT22;2800;49.528;8.666;2023-02-04T00:56:37;8.40;99.90
5554;DHT22;2800;49.528;8.666;2023-02-04T00:59:02;8.30;99.90
5554;DHT22;2800;49.528;8.666;2023-02-04T01:01:28;8.30;99.90
5554;DHT22;2800;49.528;8.666;2023-02-04T01:03:54;8.30;99.90
5554;DHT22;2800;49.528;8.666;2023-02-04T01:06:19;8.30;99.90
5554;DHT22;2800;49.528;8.666;2023-02-04T01:08:45;8.30;99.90
5554;DHT22;2800;49.528;8.666;2023-02-04T01:11:11;8.30;99.90
5554;DHT22;2800;49.528;8.666;2023-02-04T01:13:36;8.10;99.90
5554;DHT22;2800;49.528;8.666;2023-02-04T01:16:02;8.20;99.90
5554;DHT22;2800;49.528;8.666;2023-02-04T01:18:27;8.20;99.90
5554;DHT22;2800;49.528;8.666;2023-02-04T01:20:53;8.20;99.90
5554;DHT22;2800;49.528;8.666;2023-02-04T01:23:18;8.20;99.90
5554;DHT22;2800;49.528;8.666;2023-02-04T01:25:43;8.20;99.90
5554;DHT22;2800;49.528;8.666;2023-02-04T01:28:10;8.20;99.90
5554;DHT22;2800;49.528;8.666;2023-02-04T01:30:36;8.20;99.90
5554;DHT22;2800;49.528;8.666;2023-02-04T01:33:01;8.10;99.90
5554;DHT22;2800;49.528;8.666;2023-02-04T01:35:27;8.00;99.90
5554;DHT22;2800;49.528;8.666;2023-02-04T01:37:52;8.00;99.90
5554;DHT22;2800;49.528;8.666;2023-02-04T01:40:18;8.00;99.90
5554;DHT22;2800;49.528;8.666;2023-02-04T01:42:43;8.00;99.90
5554;DHT22;2800;49.528;8.666;2023-02-04T01:45:09;8.00;99.90
5554;DHT22;2800;49.528;8.666;2023-02-04T01:47:35;8.00;99.90
5554;DHT22;2800;49.528;8.666;2023-02-04T01:50:01;8.00;99.90
5554;DHT22;2800;49.528;8.666;2023-02-04T01:52:32;8.00;99.90
5554;DHT22;2800;49.528;8.666;2023-02-04T01:54:59;7.90;99.90
5554;DHT22;2800;49.528;8.666;2023-02-04T01:57:24;7.90;99.90
5554;DHT22;2800;49.528;8.666;2023-02-04T01:59:51;7.90;99.90
5554;DHT22;2800;49.528;8.666;2023-02-04T02:02:39;7.90;99.90
5554;DHT22;2800;49.528;8.666;2023-02-04T02:05:07;7.90;99.90
5554;DHT22;2800;49.528;8.666;2023-02-04T02:07:33;7.90;99.90
5554;DHT22;2800;49.528;8.666;2023-02-04T02:09:59;7.90;99.90
5554;DHT22;2800;49.528;8.666;2023-02-04T02:12:24;7.90;99.90
5554;DHT22;2800;49.528;8.666;2023-02-04T02:14:50;7.90;99.90
5554;DHT22;2800;49.528;8.666;2023-02-04T02:17:16;7.90;99.90
5554;DHT22;2800;49.528;8.666;2023-02-04T02:19:42;7.80;99.90
5554;DHT22;2800;49.528;8.666;2023-02-04T02:22:32;7.80;99.90
5554;DHT22;2800;49.528;8.666;2023-02-04T02:24:59;7.80;99.90
5554;DHT22;2800;49.528;8.666;2023-02-04T02:27:25;7.80;99.90
5554;DHT22;2800;49.528;8.666;2023-02-04T02:29:50;7.80;99.90
5554;DHT22;2800;49.528;8.666;2023-02-04T02:32:16;7.80;99.90
5554;DHT22;2800;49.528;8.666;2023-02-04T02:34:42;7.80;99.90
5554;DHT22;2800;49.528;8.666;2023-02-04T02:37:08;7.80;99.90
5554;DHT22;2800;49.528;8.666;2023-02-04T02:39:36;7.80;99.90
5554;DHT22;2800;49.528;8.666;2023-02-04T02:42:02;7.80;99.90
5554;DHT22;2800;49.528;8.666;2023-02-04T02:44:28;7.80;99.90
5554;DHT22;2800;49.528;8.666;2023-02-04T02:46:54;7.80;99.90
5554;DHT22;2800;49.528;8.666;2023-02-04T02:49:20;7.80;99.90
5554;DHT22;2800;49.528;8.666;2023-02-04T02:51:46;7.70;99.90
5554;DHT22;2800;49.528;8.666;2023-02-04T02:56:44;7.70;99.90
5554;DHT22;2800;49.528;8.666;2023-02-04T02:59:14;7.70;99.90
5554;DHT22;2800;49.528;8.666;2023-02-04T03:01:40;7.70;99.90
5554;DHT22;2800;49.528;8.666;2023-02-04T03:04:06;7.60;99.90
5554;DHT22;2800;49.528;8.666;2023-02-04T03:06:32;7.60;99.90
5554;DHT22;2800;49.528;8.666;2023-02-04T03:08:58;7.20;99.90
5554;DHT22;2800;49.528;8.666;2023-02-04T03:11:23;7.60;99.90
5554;DHT22;2800;49.528;8.666;2023-02-04T03:13:51;7.60;99.90
5554;DHT22;2800;49.528;8.666;2023-02-04T03:16:17;7.60;99.90
5554;DHT22;2800;49.528;8.666;2023-02-04T03:18:43;7.60;99.90
5554;DHT22;2800;49.528;8.666;2023-02-04T03:21:08;7.60;99.90
5554;DHT22;2800;49.528;8.666;2023-02-04T03:23:35;7.50;99.90
5554;DHT22;2800;49.528;8.666;2023-02-04T03:26:01;7.50;99.90
5554;DHT22;2800;49.528;8.666;2023-02-04T03:28:28;7.50;99.90
5554;DHT22;2800;49.528;8.666;2023-02-04T03:30:54;7.50;99.90
5554;DHT22;2800;49.528;8.666;2023-02-04T03:33:25;7.40;99.90
5554;DHT22;2800;49.528;8.666;2023-02-04T03:35:53;6.50;99.90
5554;DHT22;2800;49.528;8.666;2023-02-04T03:38:19;7.40;99.90
5554;DHT22;2800;49.528;8.666;2023-02-04T03:40:45;7.40;99.90
5554;DHT22;2800;49.528;8.666;2023-02-04T03:43:11;7.40;99.90
5554;DHT22;2800;49.528;8.666;2023-02-04T03:45:36;7.40;99.90
5554;DHT22;2800;49.528;8.666;2023-02-04T03:48:02;7.40;99.90
5554;DHT22;2800;49.528;8.666;2023-02-04T03:50:28;7.40;99.90
5554;DHT22;2800;49.528;8.666;2023-02-04T03:52:53;7.40;99.90
5554;DHT22;2800;49.528;8.666;2023-02-04T03:55:19;7.30;99.90
5554;DHT22;2800;49.528;8.666;2023-02-04T03:57:45;7.30;99.90
5554;DHT22;2800;49.528;8.666;2023-02-04T04:00:11;7.30;99.90
5554;DHT22;2800;49.528;8.666;2023-02-04T04:02:38;7.30;99.90
5554;DHT22;2800;49.528;8.666;2023-02-04T04:05:04;7.30;99.90
5554;DHT22;2800;49.528;8.666;2023-02-04T04:07:29;7.30;99.90
5554;DHT22;2800;49.528;8.666;2023-02-04T04:09:55;7.30;99.90
5554;DHT22;2800;49.528;8.666;2023-02-04T04:12:20;7.30;99.90
5554;DHT22;2800;49.528;8.666;2023-02-04T04:14:46;7.20;99.90
5554;DHT22;2800;49.528;8.666;2023-02-04T04:17:11;7.20;99.90
5554;DHT22;2800;49.528;8.666;2023-02-04T04:19:37;7.20;99.90
5554;DHT22;2800;49.528;8.666;2023-02-04T04:22:02;7.20;99.90
5554;DHT22;2800;49.528;8.666;2023-02-04T04:24:28;7.10;99.90
5554;DHT22;2800;49.528;8.666;2023-02-04T04:26:53;7.10;99.90
5554;DHT22;2800;49.528;8.666;2023-02-04T04:29:19;7.10;99.90
5554;DHT22;2800;49.528;8.666;2023-02-04T04:31:44;7.10;99.90
5554;DHT22;2800;49.528;8.666;2023-02-04T04:34:10;7.10;99.90
5554;DHT22;2800;49.528;8.666;2023-02-04T04:36:37;7.10;99.90
5554;DHT22;2800;49.528;8.666;2023-02-04T04:39:03;7.00;99.90
5554;DHT22;2800;49.528;8.666;2023-02-04T04:41:28;7.10;99.90
5554;DHT22;2800;49.528;8.666;2023-02-04T04:43:54;7.00;99.90
5554;DHT22;2800;49.528;8.666;2023-02-04T04:46:19;7.00;99.90
5554;DHT22;2800;49.528;8.666;2023-02-04T04:48:45;7.00;99.90
5554;DHT22;2800;49.528;8.666;2023-02-04T04:51:10;7.00;99.90
5554;DHT22;2800;49.528;8.666;2023-02-04T04:53:36;7.10;99.90
5554;DHT22;2800;49.528;8.666;2023-02-04T04:56:02;7.10;99.90
5554;DHT22;2800;49.528;8.666;2023-02-04T04:58:27;7.00;99.90
5554;DHT22;2800;49.528;8.666;2023-02-04T05:00:53;7.10;99.90
5554;DHT22;2800;49.528;8.666;2023-02-04T05:03:18;7.10;99.90
5554;DHT22;2800;49.528;8.666;2023-02-04T05:05:44;7.10;99.90
5554;DHT22;2800;49.528;8.666;2023-02-04T05:08:09;7.00;99.90
5554;DHT22;2800;49.528;8.666;2023-02-04T05:10:38;7.00;99.90
5554;DHT22;2800;49.528;8.666;2023-02-04T05:13:04;7.10;99.90
5554;DHT22;2800;49.528;8.666;2023-02-04T05:15:30;7.00;99.90
5554;DHT22;2800;49.528;8.666;2023-02-04T05:17:55;7.00;99.90
5554;DHT22;2800;49.528;8.666;2023-02-04T05:20:22;7.00;99.90
5554;DHT22;2800;49.528;8.666;2023-02-04T05:22:48;7.00;99.90
5554;DHT22;2800;49.528;8.666;2023-02-04T05:25:14;7.00;99.90
5554;DHT22;2800;49.528;8.666;2023-02-04T05:27:41;7.00;99.90
5554;DHT22;2800;49.528;8.666;2023-02-04T05:30:09;7.00;99.90
5554;DHT22;2800;49.528;8.666;2023-02-04T05:32:35;6.90;99.90
5554;DHT22;2800;49.528;8.666;2023-02-04T05:35:01;6.90;99.90
5554;DHT22;2800;49.528;8.666;2023-02-04T05:37:26;6.90;99.90
5554;DHT22;2800;49.528;8.666;2023-02-04T05:39:52;6.90;99.90
5554;DHT22;2800;49.528;8.666;2023-02-04T05:42:17;6.90;99.90
5554;DHT22;2800;49.528;8.666;2023-02-04T05:44:43;6.80;99.90
5554;DHT22;2800;49.528;8.666;2023-02-04T05:47:08;6.80;99.90
5554;DHT22;2800;49.528;8.666;2023-02-04T05:49:34;6.80;99.90
5554;DHT22;2800;49.528;8.666;2023-02-04T05:51:59;6.80;99.90
5554;DHT22;2800;49.528;8.666;2023-02-04T05:54:25;6.70;99.90
5554;DHT22;2800;49.528;8.666;2023-02-04T05:56:50;6.70;99.90
5554;DHT22;2800;49.528;8.666;2023-02-04T05:59:16;6.70;99.90
5554;DHT22;2800;49.528;8.666;2023-02-04T06:01:42;6.70;99.90
5554;DHT22;2800;49.528;8.666;2023-02-04T06:04:08;6.70;99.90
5554;DHT22;2800;49.528;8.666;2023-02-04T06:06:34;6.70;99.90
5554;DHT22;2800;49.528;8.666;2023-02-04T06:09:00;6.70;99.90
5554;DHT22;2800;49.528;8.666;2023-02-04T06:11:26;6.70;99.90
5554;DHT22;2800;49.528;8.666;2023-02-04T06:13:51;6.70;99.90
5554;DHT22;2800;49.528;8.666;2023-02-04T06:16:17;6.70;99.90
5554;DHT22;2800;49.528;8.666;2023-02-04T06:18:43;6.60;99.90
5554;DHT22;2800;49.528;8.666;2023-02-04T06:21:09;6.60;99.90
5554;DHT22;2800;49.528;8.666;2023-02-04T06:23:34;6.50;99.90
5554;DHT22;2800;49.528;8.666;2023-02-04T06:26:03;6.50;99.90
5554;DHT22;2800;49.528;8.666;2023-02-04T06:28:28;6.50;99.90
5554;DHT22;2800;49.528;8.666;2023-02-04T06:30:54;6.40;99.90
5554;DHT22;2800;49.528;8.666;2023-02-04T06:33:20;6.40;99.90
5554;DHT22;2800;49.528;8.666;2023-02-04T06:35:47;6.40;99.90
5554;DHT22;2800;49.528;8.666;2023-02-04T06:38:12;6.40;99.90
5554;DHT22;2800;49.528;8.666;2023-02-04T06:40:38;6.30;99.90
5554;DHT22;2800;49.528;8.666;2023-02-04T06:43:03;6.30;99.90
5554;DHT22;2800;49.528;8.666;2023-02-04T06:45:29;6.20;99.90
5554;DHT22;2800;49.528;8.666;2023-02-04T06:47:54;6.20;99.90
5554;DHT22;2800;49.528;8.666;2023-02-04T06:50:20;6.20;99.90
5554;DHT22;2800;49.528;8.666;2023-02-04T06:52:45;6.10;99.90
5554;DHT22;2800;49.528;8.666;2023-02-04T06:55:15;6.10;99.90
5554;DHT22;2800;49.528;8.666;2023-02-04T06:57:41;6.00;99.90
5554;DHT22;2800;49.528;8.666;2023-02-04T07:00:08;5.90;99.90
5554;DHT22;2800;49.528;8.666;2023-02-04T07:02:34;5.90;99.90
5554;DHT22;2800;49.528;8.666;2023-02-04T07:04:59;5.90;99.90
5554;DHT22;2800;49.528;8.666;2023-02-04T07:07:25;5.90;99.90
5554;DHT22;2800;49.528;8.666;2023-02-04T07:09:51;5.90;99.90
5554;DHT22;2800;49.528;8.666;2023-02-04T07:12:17;5.90;99.90
5554;DHT22;2800;49.528;8.666;2023-02-04T07:14:43;5.80;99.90
5554;DHT22;2800;49.528;8.666;2023-02-04T07:17:08;5.80;99.90
5554;DHT22;2800;49.528;8.666;2023-02-04T07:19:34;5.80;99.90
5554;DHT22;2800;49.528;8.666;2023-02-04T07:22:01;5.70;99.90
5554;DHT22;2800;49.528;8.666;2023-02-04T07:24:26;5.70;99.90
5554;DHT22;2800;49.528;8.666;2023-02-04T07:26:52;5.60;99.90
5554;DHT22;2800;49.528;8.666;2023-02-04T07:29:18;5.60;99.90
5554;DHT22;2800;49.528;8.666;2023-02-04T07:31:44;5.60;99.90
5554;DHT22;2800;49.528;8.666;2023-02-04T07:34:14;5.70;99.90
5554;DHT22;2800;49.528;8.666;2023-02-04T07:36:40;5.70;99.90
5554;DHT22;2800;49.528;8.666;2023-02-04T07:39:06;5.80;99.90
5554;DHT22;2800;49.528;8.666;2023-02-04T07:41:32;5.80;99.90
5554;DHT22;2800;49.528;8.666;2023-02-04T07:43:57;5.80;99.90
5554;DHT22;2800;49.528;8.666;2023-02-04T07:46:23;5.80;99.90
5554;DHT22;2800;49.528;8.666;2023-02-04T07:48:48;5.90;99.90
5554;DHT22;2800;49.528;8.666;2023-02-04T07:51:14;6.00;99.90
5554;DHT22;2800;49.528;8.666;2023-02-04T07:53:40;6.00;99.90
5554;DHT22;2800;49.528;8.666;2023-02-04T07:56:05;6.10;99.90
5554;DHT22;2800;49.528;8.666;2023-02-04T07:58:31;6.10;99.90
5554;DHT22;2800;49.528;8.666;2023-02-04T08:00:56;6.20;99.90
5554;DHT22;2800;49.528;8.666;2023-02-04T08:03:22;6.20;99.90
5554;DHT22;2800;49.528;8.666;2023-02-04T08:05:48;6.30;99.90
5554;DHT22;2800;49.528;8.666;2023-02-04T08:08:13;6.30;99.90
5554;DHT22;2800;49.528;8.666;2023-02-04T08:10:39;6.40;99.90
5554;DHT22;2800;49.528;8.666;2023-02-04T08:13:05;6.50;99.90
5554;DHT22;2800;49.528;8.666;2023-02-04T08:15:31;6.60;99.90
5554;DHT22;2800;49.528;8.666;2023-02-04T08:17:57;6.60;99.90
5554;DHT22;2800;49.528;8.666;2023-02-04T08:20:22;6.70;99.90
5554;DHT22;2800;49.528;8.666;2023-02-04T08:22:48;7.10;99.90
5554;DHT22;2800;49.528;8.666;2023-02-04T08:25:13;7.20;99.90
5554;DHT22;2800;49.528;8.666;2023-02-04T08:27:39;7.30;99.90
5554;DHT22;2800;49.528;8.666;2023-02-04T08:30:05;7.20;99.90
5554;DHT22;2800;49.528;8.666;2023-02-04T08:32:31;7.20;99.90
5554;DHT22;2800;49.528;8.666;2023-02-04T08:34:57;7.30;99.90
5554;DHT22;2800;49.528;8.666;2023-02-04T08:37:22;7.40;99.90
5554;DHT22;2800;49.528;8.666;2023-02-04T08:39:48;7.60;99.90
5554;DHT22;2800;49.528;8.666;2023-02-04T08:42:14;7.60;99.90
5554;DHT22;2800;49.528;8.666;2023-02-04T08:44:41;7.70;99.90
5554;DHT22;2800;49.528;8.666;2023-02-04T08:47:07;7.70;99.90
5554;DHT22;2800;49.528;8.666;2023-02-04T08:49:32;7.60;99.90
5554;DHT22;2800;49.528;8.666;2023-02-04T08:51:58;7.70;99.90
5554;DHT22;2800;49.528;8.666;2023-02-04T08:54:24;7.70;99.90
5554;DHT22;2800;49.528;8.666;2023-02-04T08:56:50;7.70;99.90
5554;DHT22;2800;49.528;8.666;2023-02-04T08:59:16;7.80;99.90
5554;DHT22;2800;49.528;8.666;2023-02-04T09:01:41;7.70;99.90
5554;DHT22;2800;49.528;8.666;2023-02-04T09:04:07;7.70;99.90
5554;DHT22;2800;49.528;8.666;2023-02-04T09:06:33;7.60;99.90
5554;DHT22;2800;49.528;8.666;2023-02-04T09:08:58;7.70;99.90
5554;DHT22;2800;49.528;8.666;2023-02-04T09:11:24;7.80;99.90
5554;DHT22;2800;49.528;8.666;2023-02-04T09:13:50;8.10;99.90
5554;DHT22;2800;49.528;8.666;2023-02-04T09:16:15;8.30;99.90
5554;DHT22;2800;49.528;8.666;2023-02-04T09:18:42;8.50;99.90
5554;DHT22;2800;49.528;8.666;2023-02-04T09:21:08;8.90;99.90
5554;DHT22;2800;49.528;8.666;2023-02-04T09:23:33;9.40;99.90
5554;DHT22;2800;49.528;8.666;2023-02-04T09:25:59;9.90;99.90
5554;DHT22;2800;49.528;8.666;2023-02-04T09:28:25;10.00;99.90
5554;DHT22;2800;49.528;8.666;2023-02-04T09:30:51;10.00;99.90
5554;DHT22;2800;49.528;8.666;2023-02-04T09:33:17;10.20;99.90
5554;DHT22;2800;49.528;8.666;2023-02-04T09:35:42;10.40;99.90
5554;DHT22;2800;49.528;8.666;2023-02-04T09:38:08;10.40;99.90
5554;DHT22;2800;49.528;8.666;2023-02-04T09:40:36;10.80;99.90
5554;DHT22;2800;49.528;8.666;2023-02-04T09:43:05;11.00;99.90
5554;DHT22;2800;49.528;8.666;2023-02-04T09:45:35;11.00;99.90
5554;DHT22;2800;49.528;8.666;2023-02-04T09:48:03;10.60;99.90
5554;DHT22;2800;49.528;8.666;2023-02-04T09:50:29;9.90;99.90
5554;DHT22;2800;49.528;8.666;2023-02-04T09:53:02;9.70;99.90
5554;DHT22;2800;49.528;8.666;2023-02-04T09:55:32;9.50;99.90
5554;DHT22;2800;49.528;8.666;2023-02-04T09:57:58;9.30;99.90
5554;DHT22;2800;49.528;8.666;2023-02-04T10:00:27;9.50;99.90
5554;DHT22;2800;49.528;8.666;2023-02-04T10:02:55;9.50;99.90
5554;DHT22;2800;49.528;8.666;2023-02-04T10:05:27;9.90;99.90
5554;DHT22;2800;49.528;8.666;2023-02-04T10:07:53;10.10;99.90
5554;DHT22;2800;49.528;8.666;2023-02-04T10:10:21;10.00;99.90
5554;DHT22;2800;49.528;8.666;2023-02-04T10:12:51;9.90;99.90
5554;DHT22;2800;49.528;8.666;2023-02-04T10:15:18;9.90;99.90
5554;DHT22;2800;49.528;8.666;2023-02-04T10:18:05;10.10;99.90
5554;DHT22;2800;49.528;8.666;2023-02-04T10:20:31;10.70;99.90
5554;DHT22;2800;49.528;8.666;2023-02-04T10:22:57;10.90;99.90
5554;DHT22;2800;49.528;8.666;2023-02-04T10:25:23;11.00;99.90
5554;DHT22;2800;49.528;8.666;2023-02-04T10:27:55;11.10;99.90
5554;DHT22;2800;49.528;8.666;2023-02-04T10:30:24;10.70;99.80
5554;DHT22;2800;49.528;8.666;2023-02-04T10:32:51;10.40;99.90
5554;DHT22;2800;49.528;8.666;2023-02-04T10:35:18;9.60;99.90
5554;DHT22;2800;49.528;8.666;2023-02-04T10:37:44;9.70;99.90
5554;DHT22;2800;49.528;8.666;2023-02-04T10:40:31;9.40;99.90
5554;DHT22;2800;49.528;8.666;2023-02-04T10:42:58;9.40;99.90
5554;DHT22;2800;49.528;8.666;2023-02-04T10:45:28;9.30;99.90
5554;DHT22;2800;49.528;8.666;2023-02-04T10:47:55;9.10;99.90
5554;DHT22;2800;49.528;8.666;2023-02-04T10:50:26;9.10;99.90
5554;DHT22;2800;49.528;8.666;2023-02-04T10:52:54;9.20;99.90
5554;DHT22;2800;49.528;8.666;2023-02-04T10:55:41;9.00;99.90
5554;DHT22;2800;49.528;8.666;2023-02-04T10:58:11;9.20;99.90
5554;DHT22;2800;49.528;8.666;2023-02-04T11:00:37;9.40;99.90
5554;DHT22;2800;49.528;8.666;2023-02-04T11:03:18;9.40;99.90
5554;DHT22;2800;49.528;8.666;2023-02-04T11:05:46;9.70;99.90
5554;DHT22;2800;49.528;8.666;2023-02-04T11:08:32;10.00;99.90
5554;DHT22;2800;49.528;8.666;2023-02-04T11:11:03;10.50;99.90
5554;DHT22;2800;49.528;8.666;2023-02-04T11:13:58;11.10;97.30
5554;DHT22;2800;49.528;8.666;2023-02-04T11:16:30;11.80;92.40
5554;DHT22;2800;49.528;8.666;2023-02-04T11:18:59;12.70;91.00
5554;DHT22;2800;49.528;8.666;2023-02-04T11:21:43;13.30;78.70
5554;DHT22;2800;49.528;8.666;2023-02-04T11:26:43;13.90;68.10
5554;DHT22;2800;49.528;8.666;2023-02-04T11:31:44;13.20;68.60
5554;DHT22;2800;49.528;8.666;2023-02-04T11:39:37;11.90;63.30
5554;DHT22;2800;49.528;8.666;2023-02-04T11:45:02;12.70;62.50
5554;DHT22;2800;49.528;8.666;2023-02-04T11:47:34;13.40;62.40
5554;DHT22;2800;49.528;8.666;2023-02-04T11:50:09;13.40;60.40
5554;DHT22;2800;49.528;8.666;2023-02-04T11:52:35;13.00;61.10
5554;DHT22;2800;49.528;8.666;2023-02-04T11:55:01;13.60;59.10
5554;DHT22;2800;49.528;8.666;2023-02-04T11:57:27;13.90;52.50
5554;DHT22;2800;49.528;8.666;2023-02-04T11:59:53;14.60;51.50
5554;DHT22;2800;49.528;8.666;2023-02-04T12:02:21;14.70;47.20
5554;DHT22;2800;49.528;8.666;2023-02-04T12:05:09;14.30;46.40
5554;DHT22;2800;49.528;8.666;2023-02-04T12:07:34;13.60;47.40
5554;DHT22;2800;49.528;8.666;2023-02-04T12:12:49;13.60;45.40
5554;DHT22;2800;49.528;8.666;2023-02-04T12:15:21;13.50;45.90
5554;DHT22;2800;49.528;8.666;2023-02-04T12:20:29;12.60;43.50
5554;DHT22;2800;49.528;8.666;2023-02-04T12:22:55;12.90;42.90
5554;DHT22;2800;49.528;8.666;2023-02-04T12:25:21;13.40;42.30
5554;DHT22;2800;49.528;8.666;2023-02-04T12:27:47;13.50;37.90
5554;DHT22;2800;49.528;8.666;2023-02-04T12:30:12;14.00;38.20
5554;DHT22;2800;49.528;8.666;2023-02-04T12:32:38;14.70;39.80
5554;DHT22;2800;49.528;8.666;2023-02-04T12:35:04;14.30;35.40
5554;DHT22;2800;49.528;8.666;2023-02-04T12:37:30;13.30;36.40
5554;DHT22;2800;49.528;8.666;2023-02-04T12:39:56;12.30;34.70
5554;DHT22;2800;49.528;8.666;2023-02-04T12:42:21;12.30;38.90
5554;DHT22;2800;49.528;8.666;2023-02-04T12:44:47;11.40;36.60
5554;DHT22;2800;49.528;8.666;2023-02-04T12:47:12;11.40;39.90
5554;DHT22;2800;49.528;8.666;2023-02-04T12:49:38;11.30;39.40
5554;DHT22;2800;49.528;8.666;2023-02-04T12:52:04;11.50;42.20
5554;DHT22;2800;49.528;8.666;2023-02-04T12:54:30;11.60;41.70
5554;DHT22;2800;49.528;8.666;2023-02-04T12:56:55;11.60;39.40
5554;DHT22;2800;49.528;8.666;2023-02-04T12:59:24;11.40;41.10
5554;DHT22;2800;49.528;8.666;2023-02-04T13:01:50;10.90;40.80
5554;DHT22;2800;49.528;8.666;2023-02-04T13:04:16;10.90;41.70
5554;DHT22;2800;49.528;8.666;2023-02-04T13:06:41;11.80;40.00
5554;DHT22;2800;49.528;8.666;2023-02-04T13:09:07;13.00;40.40
5554;DHT22;2800;49.528;8.666;2023-02-04T13:11:33;12.80;38.50
5554;DHT22;2800;49.528;8.666;2023-02-04T13:13:58;12.50;37.30
5554;DHT22;2800;49.528;8.666;2023-02-04T13:16:24;12.70;38.90
5554;DHT22;2800;49.528;8.666;2023-02-04T13:18:50;12.50;39.60
5554;DHT22;2800;49.528;8.666;2023-02-04T13:21:16;12.40;40.00
5554;DHT22;2800;49.528;8.666;2023-02-04T13:23:41;13.30;38.80
5554;DHT22;2800;49.528;8.666;2023-02-04T13:26:07;14.40;39.60
5554;DHT22;2800;49.528;8.666;2023-02-04T13:28:36;15.70;38.70
5554;DHT22;2800;49.528;8.666;2023-02-04T13:31:01;16.20;35.60
5554;DHT22;2800;49.528;8.666;2023-02-04T13:33:27;16.20;31.90
5554;DHT22;2800;49.528;8.666;2023-02-04T13:35:53;16.30;33.10
5554;DHT22;2800;49.528;8.666;2023-02-04T13:38:18;16.60;28.70
5554;DHT22;2800;49.528;8.666;2023-02-04T13:40:44;16.40;27.90
5554;DHT22;2800;49.528;8.666;2023-02-04T13:43:09;16.30;26.70
5554;DHT22;2800;49.528;8.666;2023-02-04T13:45:35;15.10;25.70
5554;DHT22;2800;49.528;8.666;2023-02-04T13:48:00;14.30;26.60
5554;DHT22;2800;49.528;8.666;2023-02-04T13:50:26;14.50;26.70
5554;DHT22;2800;49.528;8.666;2023-02-04T13:52:51;14.10;27.10
5554;DHT22;2800;49.528;8.666;2023-02-04T13:55:17;14.50;28.10
5554;DHT22;2800;49.528;8.666;2023-02-04T13:57:42;14.80;25.90
5554;DHT22;2800;49.528;8.666;2023-02-04T14:00:09;14.80;26.40
5554;DHT22;2800;49.528;8.666;2023-02-04T14:02:35;14.60;26.60
5554;DHT22;2800;49.528;8.666;2023-02-04T14:05:00;14.00;25.90
5554;DHT22;2800;49.528;8.666;2023-02-04T14:07:26;13.50;26.70
5554;DHT22;2800;49.528;8.666;2023-02-04T14:09:51;12.70;26.50
5554;DHT22;2800;49.528;8.666;2023-02-04T14:12:17;12.10;26.80
5554;DHT22;2800;49.528;8.666;2023-02-04T14:14:42;11.80;27.70
5554;DHT22;2800;49.528;8.666;2023-02-04T14:17:08;11.60;28.60
5554;DHT22;2800;49.528;8.666;2023-02-04T14:19:33;11.40;28.20
5554;DHT22;2800;49.528;8.666;2023-02-04T14:21:59;11.50;29.10
5554;DHT22;2800;49.528;8.666;2023-02-04T14:24:24;11.40;30.50
5554;DHT22;2800;49.528;8.666;2023-02-04T14:26:50;11.30;31.60
5554;DHT22;2800;49.528;8.666;2023-02-04T14:29:16;11.10;32.80
5554;DHT22;2800;49.528;8.666;2023-02-04T14:31:41;10.90;33.80
5554;DHT22;2800;49.528;8.666;2023-02-04T14:34:07;10.90;35.40
5554;DHT22;2800;49.528;8.666;2023-02-04T14:36:32;10.90;38.10
5554;DHT22;2800;49.528;8.666;2023-02-04T14:38:58;10.90;39.00
5554;DHT22;2800;49.528;8.666;2023-02-04T14:41:23;11.00;40.70
5554;DHT22;2800;49.528;8.666;2023-02-04T14:43:51;11.70;41.30
5554;DHT22;2800;49.528;8.666;2023-02-04T14:46:17;12.40;39.70
5554;DHT22;2800;49.528;8.666;2023-02-04T14:48:43;13.10;38.00
5554;DHT22;2800;49.528;8.666;2023-02-04T14:51:10;13.40;34.70
5554;DHT22;2800;49.528;8.666;2023-02-04T14:53:35;13.70;34.80
5554;DHT22;2800;49.528;8.666;2023-02-04T14:56:01;13.90;34.30
5554;DHT22;2800;49.528;8.666;2023-02-04T14:58:27;14.20;33.10
5554;DHT22;2800;49.528;8.666;2023-02-04T15:00:52;14.50;33.00
5554;DHT22;2800;49.528;8.666;2023-02-04T15:03:18;14.60;31.40
5554;DHT22;2800;49.528;8.666;2023-02-04T15:05:43;14.60;32.20
5554;DHT22;2800;49.528;8.666;2023-02-04T15:08:09;14.20;30.00
5554;DHT22;2800;49.528;8.666;2023-02-04T15:10:35;13.00;28.50
5554;DHT22;2800;49.528;8.666;2023-02-04T15:13:00;12.40;30.60
5554;DHT22;2800;49.528;8.666;2023-02-04T15:15:26;11.80;30.70
5554;DHT22;2800;49.528;8.666;2023-02-04T15:17:51;11.10;30.60
5554;DHT22;2800;49.528;8.666;2023-02-04T15:20:17;10.50;31.40
5554;DHT22;2800;49.528;8.666;2023-02-04T15:22:43;10.30;34.20
5554;DHT22;2800;49.528;8.666;2023-02-04T15:25:09;10.30;35.70
5554;DHT22;2800;49.528;8.666;2023-02-04T15:27:36;10.30;34.50
5554;DHT22;2800;49.528;8.666;2023-02-04T15:30:02;10.40;34.10
5554;DHT22;2800;49.528;8.666;2023-02-04T15:32:28;10.70;35.40
5554;DHT22;2800;49.528;8.666;2023-02-04T15:34:53;10.90;35.20
5554;DHT22;2800;49.528;8.666;2023-02-04T15:37:19;11.00;34.70
5554;DHT22;2800;49.528;8.666;2023-02-04T15:39:44;10.80;34.40
5554;DHT22;2800;49.528;8.666;2023-02-04T15:42:10;10.80;34.80
5554;DHT22;2800;49.528;8.666;2023-02-04T15:44:35;10.50;35.70
5554;DHT22;2800;49.528;8.666;2023-02-04T15:47:01;10.50;36.60
5554;DHT22;2800;49.528;8.666;2023-02-04T15:49:26;10.20;36.50
5554;DHT22;2800;49.528;8.666;2023-02-04T15:51:52;9.70;37.80
5554;DHT22;2800;49.528;8.666;2023-02-04T15:54:18;9.40;38.50
5554;DHT22;2800;49.528;8.666;2023-02-04T15:56:43;9.10;40.90
5554;DHT22;2800;49.528;8.666;2023-02-04T15:59:09;9.00;42.50
5554;DHT22;2800;49.528;8.666;2023-02-04T16:01:34;8.80;43.20
5554;DHT22;2800;49.528;8.666;2023-02-04T16:04:00;8.70;44.30
5554;DHT22;2800;49.528;8.666;2023-02-04T16:06:26;8.70;45.90
5554;DHT22;2800;49.528;8.666;2023-02-04T16:08:51;8.70;47.30
5554;DHT22;2800;49.528;8.666;2023-02-04T16:11:17;8.60;50.00
5554;DHT22;2800;49.528;8.666;2023-02-04T16:13:43;8.60;52.10
5554;DHT22;2800;49.528;8.666;2023-02-04T16:16:08;8.50;52.40
5554;DHT22;2800;49.528;8.666;2023-02-04T16:18:34;8.30;54.40
5554;DHT22;2800;49.528;8.666;2023-02-04T16:20:59;8.20;56.00
5554;DHT22;2800;49.528;8.666;2023-02-04T16:23:25;8.10;56.40
5554;DHT22;2800;49.528;8.666;2023-02-04T16:25:50;8.00;57.70
5554;DHT22;2800;49.528;8.666;2023-02-04T16:28:16;7.90;58.90